Pagina principale
METAR-TAF:

METAR-TAF

Aeroporti :

Aeroporto Internazionale di Lusaka

Lusaka, Zambia

latitudine: 15-19-51S, longitudine: 028-27-09E, altezza: 1152 m

Osservazione

Il bollettino è stato emesso 58 minuti fa, alle 00:00 UTC
Vento 5 kt da sud-est
Temperature 14°C
Umidità 51%
Pressione 1024 hPa
Visibilità 10 km o più
nessuna nube inferiore a 1500 m e nessun cumulonembo

METAR: FLKK 160000Z 14005KT CAVOK 14/04 Q1024

Ora: 02:58 (00:58 UTC)

Previsione

Il bollettino è stato emesso 2 ore e 58 minuti fa, alle 22:00 UTC
Previsione valida dal 15 alle 00 UTC al 16 alle 06 UTC
Vento 5 kt da est
Visibilità 10 km o più
nessuna nube inferiore a 1500 m e nessun cumulonembo

TAF: FLKK 142200Z 1500/1606 09005KT CAVOK

Osservazioni e previsioni meteorologiche di più di 4000 aeroporti (messaggi METAR e TAF).

Le stazioni disponibili sono rappresentate dai dischi gialli e rossi sulla carta.

Puntare il mouse per vedere il nome della stazione.

Clicca sopra per visualizzare le osservazioni e previsioni meteorologiche.

Per cambiare la mappa : fare clic sui pulsanti verdi con una croce nera per ingrandire, il pulsante verde con un trattino per diminuire, o sulla freccia verde per le mappe adiacenti.


METAR-TAF: